PNQ weather

Pune Airport
Pune, Maharashtra, India

Public forecast

Using degrees Celsius for public forecast. Weather courtesy of forecast.io.

METAR (pilot weather report)

Report is more than 6 hours old.

Retrieved 2019/03/06 01:30 UTC (3 months ago):

VAPO 060130Z 25003KT 5000 BR NSC 17/14 Q1015 NOSIG

TAF (pilot weather forecast)

Forecast is more than 6 hours old.

Retrieved 2019/06/16 06:30 UTC (10 hours ago):

TAF VAPO 160330Z 1606/1618 24010KT 6000 SCT030 TEMPO 1609/1612 24010G20KT -RA FEW020 SCT030